sensor_id;sensor_type;location;lat;lon;timestamp;temperature;humidity
21592;DHT22;10958;50.892;3.992;2023-03-01T00:01:48;1.70;99.90
21592;DHT22;10958;50.892;3.992;2023-03-01T00:04:17;1.80;99.90
21592;DHT22;10958;50.892;3.992;2023-03-01T00:06:43;1.90;99.90
21592;DHT22;10958;50.892;3.992;2023-03-01T00:09:12;2.00;99.90
21592;DHT22;10958;50.892;3.992;2023-03-01T00:11:41;2.10;99.90
21592;DHT22;10958;50.892;3.992;2023-03-01T00:14:07;2.20;99.90
21592;DHT22;10958;50.892;3.992;2023-03-01T00:16:38;2.00;99.90
21592;DHT22;10958;50.892;3.992;2023-03-01T00:19:05;1.90;99.90
21592;DHT22;10958;50.892;3.992;2023-03-01T00:21:32;2.00;99.90
21592;DHT22;10958;50.892;3.992;2023-03-01T00:23:59;2.10;99.90
21592;DHT22;10958;50.892;3.992;2023-03-01T00:26:26;2.30;99.90
21592;DHT22;10958;50.892;3.992;2023-03-01T00:28:53;2.30;99.90
21592;DHT22;10958;50.892;3.992;2023-03-01T00:31:26;2.30;99.90
21592;DHT22;10958;50.892;3.992;2023-03-01T00:33:56;2.20;99.90
21592;DHT22;10958;50.892;3.992;2023-03-01T00:36:26;2.00;99.90
21592;DHT22;10958;50.892;3.992;2023-03-01T00:38:52;2.00;99.90
21592;DHT22;10958;50.892;3.992;2023-03-01T00:41:18;2.00;99.90
21592;DHT22;10958;50.892;3.992;2023-03-01T00:43:45;1.90;99.90
21592;DHT22;10958;50.892;3.992;2023-03-01T00:46:23;2.00;99.90
21592;DHT22;10958;50.892;3.992;2023-03-01T00:48:49;2.10;99.90
21592;DHT22;10958;50.892;3.992;2023-03-01T00:51:22;1.80;99.90
21592;DHT22;10958;50.892;3.992;2023-03-01T00:53:51;1.70;99.90
21592;DHT22;10958;50.892;3.992;2023-03-01T00:56:17;1.70;99.90
21592;DHT22;10958;50.892;3.992;2023-03-01T00:58:43;1.70;99.90
21592;DHT22;10958;50.892;3.992;2023-03-01T01:01:15;1.80;99.90
21592;DHT22;10958;50.892;3.992;2023-03-01T01:03:47;1.70;99.90
21592;DHT22;10958;50.892;3.992;2023-03-01T01:06:31;1.80;99.90
21592;DHT22;10958;50.892;3.992;2023-03-01T01:09:00;1.70;99.90
21592;DHT22;10958;50.892;3.992;2023-03-01T01:11:28;1.70;99.90
21592;DHT22;10958;50.892;3.992;2023-03-01T01:13:54;1.70;99.90
21592;DHT22;10958;50.892;3.992;2023-03-01T01:16:21;1.70;99.90
21592;DHT22;10958;50.892;3.992;2023-03-01T01:18:50;1.60;99.90
21592;DHT22;10958;50.892;3.992;2023-03-01T01:21:18;1.60;99.90
21592;DHT22;10958;50.892;3.992;2023-03-01T01:23:45;1.50;99.90
21592;DHT22;10958;50.892;3.992;2023-03-01T01:26:20;1.40;99.90
21592;DHT22;10958;50.892;3.992;2023-03-01T01:28:46;1.40;99.90
21592;DHT22;10958;50.892;3.992;2023-03-01T01:31:13;1.50;99.90
21592;DHT22;10958;50.892;3.992;2023-03-01T01:33:38;1.60;99.90
21592;DHT22;10958;50.892;3.992;2023-03-01T01:36:05;1.50;99.90
21592;DHT22;10958;50.892;3.992;2023-03-01T01:38:31;1.60;99.90
21592;DHT22;10958;50.892;3.992;2023-03-01T01:40:59;1.60;99.90
21592;DHT22;10958;50.892;3.992;2023-03-01T01:43:36;1.50;99.90
21592;DHT22;10958;50.892;3.992;2023-03-01T01:48:53;1.70;99.90
21592;DHT22;10958;50.892;3.992;2023-03-01T01:51:25;1.80;99.90
21592;DHT22;10958;50.892;3.992;2023-03-01T01:53:56;1.90;99.90
21592;DHT22;10958;50.892;3.992;2023-03-01T01:56:26;1.70;99.90
21592;DHT22;10958;50.892;3.992;2023-03-01T01:58:56;1.50;99.90
21592;DHT22;10958;50.892;3.992;2023-03-01T02:01:23;1.30;99.90
21592;DHT22;10958;50.892;3.992;2023-03-01T02:03:49;1.10;99.90
21592;DHT22;10958;50.892;3.992;2023-03-01T02:06:46;1.20;99.90
21592;DHT22;10958;50.892;3.992;2023-03-01T02:09:16;1.10;99.90
21592;DHT22;10958;50.892;3.992;2023-03-01T02:11:47;1.10;99.90
21592;DHT22;10958;50.892;3.992;2023-03-01T02:14:14;1.10;99.90
21592;DHT22;10958;50.892;3.992;2023-03-01T02:16:41;1.30;99.90
21592;DHT22;10958;50.892;3.992;2023-03-01T02:19:09;1.40;99.90
21592;DHT22;10958;50.892;3.992;2023-03-01T02:24:36;1.30;99.90
21592;DHT22;10958;50.892;3.992;2023-03-01T02:27:06;1.30;99.90
21592;DHT22;10958;50.892;3.992;2023-03-01T02:29:32;1.30;99.90
21592;DHT22;10958;50.892;3.992;2023-03-01T02:32:02;1.20;99.90
21592;DHT22;10958;50.892;3.992;2023-03-01T02:34:30;1.40;99.90
21592;DHT22;10958;50.892;3.992;2023-03-01T02:37:01;1.50;99.90
21592;DHT22;10958;50.892;3.992;2023-03-01T02:39:34;1.50;99.90
21592;DHT22;10958;50.892;3.992;2023-03-01T02:42:03;1.40;99.90
21592;DHT22;10958;50.892;3.992;2023-03-01T02:44:29;1.20;99.90
21592;DHT22;10958;50.892;3.992;2023-03-01T02:47:01;1.20;99.90
21592;DHT22;10958;50.892;3.992;2023-03-01T02:49:30;1.10;99.90
21592;DHT22;10958;50.892;3.992;2023-03-01T02:57:27;0.90;99.90
21592;DHT22;10958;50.892;3.992;2023-03-01T02:59:55;1.00;99.90
21592;DHT22;10958;50.892;3.992;2023-03-01T03:02:29;1.10;99.90
21592;DHT22;10958;50.892;3.992;2023-03-01T03:05:19;1.00;99.90
21592;DHT22;10958;50.892;3.992;2023-03-01T03:07:48;1.00;99.90
21592;DHT22;10958;50.892;3.992;2023-03-01T03:10:23;1.10;99.90
21592;DHT22;10958;50.892;3.992;2023-03-01T03:13:05;1.10;99.90
21592;DHT22;10958;50.892;3.992;2023-03-01T03:15:31;0.90;99.90
21592;DHT22;10958;50.892;3.992;2023-03-01T03:18:02;0.70;99.90
21592;DHT22;10958;50.892;3.992;2023-03-01T03:20:31;0.70;99.90
21592;DHT22;10958;50.892;3.992;2023-03-01T03:23:00;0.70;99.90
21592;DHT22;10958;50.892;3.992;2023-03-01T03:25:29;0.80;99.90
21592;DHT22;10958;50.892;3.992;2023-03-01T03:27:56;0.90;99.90
21592;DHT22;10958;50.892;3.992;2023-03-01T03:30:31;0.90;99.90
21592;DHT22;10958;50.892;3.992;2023-03-01T03:32:58;0.90;99.90
21592;DHT22;10958;50.892;3.992;2023-03-01T03:35:26;0.80;99.90
21592;DHT22;10958;50.892;3.992;2023-03-01T03:37:54;0.70;99.90
21592;DHT22;10958;50.892;3.992;2023-03-01T03:40:37;0.70;99.90
21592;DHT22;10958;50.892;3.992;2023-03-01T03:43:07;0.90;99.90
21592;DHT22;10958;50.892;3.992;2023-03-01T03:45:34;0.80;99.90
21592;DHT22;10958;50.892;3.992;2023-03-01T03:48:01;0.70;99.90
21592;DHT22;10958;50.892;3.992;2023-03-01T03:50:30;0.70;99.90
21592;DHT22;10958;50.892;3.992;2023-03-01T03:52:56;0.60;99.90
21592;DHT22;10958;50.892;3.992;2023-03-01T03:55:22;0.60;99.90
21592;DHT22;10958;50.892;3.992;2023-03-01T03:57:48;0.70;99.90
21592;DHT22;10958;50.892;3.992;2023-03-01T04:00:20;0.80;99.90
21592;DHT22;10958;50.892;3.992;2023-03-01T04:02:48;0.90;99.90
21592;DHT22;10958;50.892;3.992;2023-03-01T04:05:15;0.80;99.90
21592;DHT22;10958;50.892;3.992;2023-03-01T04:07:42;0.70;99.90
21592;DHT22;10958;50.892;3.992;2023-03-01T04:10:11;0.80;99.90
21592;DHT22;10958;50.892;3.992;2023-03-01T04:12:39;0.70;99.90
21592;DHT22;10958;50.892;3.992;2023-03-01T04:15:10;0.70;99.90
21592;DHT22;10958;50.892;3.992;2023-03-01T04:17:47;0.60;99.90
21592;DHT22;10958;50.892;3.992;2023-03-01T04:20:17;0.70;99.90
21592;DHT22;10958;50.892;3.992;2023-03-01T04:22:44;0.60;99.90
21592;DHT22;10958;50.892;3.992;2023-03-01T04:25:13;0.60;99.90
21592;DHT22;10958;50.892;3.992;2023-03-01T04:27:40;0.60;99.90
21592;DHT22;10958;50.892;3.992;2023-03-01T04:30:07;0.60;99.90
21592;DHT22;10958;50.892;3.992;2023-03-01T04:32:35;0.60;99.90
21592;DHT22;10958;50.892;3.992;2023-03-01T04:35:01;0.70;99.90
21592;DHT22;10958;50.892;3.992;2023-03-01T04:37:27;0.80;99.90
21592;DHT22;10958;50.892;3.992;2023-03-01T04:39:58;0.60;99.90
21592;DHT22;10958;50.892;3.992;2023-03-01T04:42:26;0.60;99.90
21592;DHT22;10958;50.892;3.992;2023-03-01T04:44:52;0.60;99.90
21592;DHT22;10958;50.892;3.992;2023-03-01T04:47:18;0.60;99.90
21592;DHT22;10958;50.892;3.992;2023-03-01T04:49:44;0.50;99.90
21592;DHT22;10958;50.892;3.992;2023-03-01T04:52:10;0.40;99.90
21592;DHT22;10958;50.892;3.992;2023-03-01T04:54:36;0.50;99.90
21592;DHT22;10958;50.892;3.992;2023-03-01T04:57:02;0.50;99.90
21592;DHT22;10958;50.892;3.992;2023-03-01T04:59:28;0.50;99.90
21592;DHT22;10958;50.892;3.992;2023-03-01T05:01:57;0.40;99.90
21592;DHT22;10958;50.892;3.992;2023-03-01T05:04:23;0.50;99.90
21592;DHT22;10958;50.892;3.992;2023-03-01T05:06:49;0.60;99.90
21592;DHT22;10958;50.892;3.992;2023-03-01T05:09:18;0.70;99.90
21592;DHT22;10958;50.892;3.992;2023-03-01T05:11:44;0.60;99.90
21592;DHT22;10958;50.892;3.992;2023-03-01T05:14:10;0.50;99.90
21592;DHT22;10958;50.892;3.992;2023-03-01T05:16:36;0.40;99.90
21592;DHT22;10958;50.892;3.992;2023-03-01T05:19:05;0.40;99.90
21592;DHT22;10958;50.892;3.992;2023-03-01T05:21:38;0.50;99.90
21592;DHT22;10958;50.892;3.992;2023-03-01T05:24:27;0.60;99.90
21592;DHT22;10958;50.892;3.992;2023-03-01T05:26:53;0.50;99.90
21592;DHT22;10958;50.892;3.992;2023-03-01T05:29:23;0.40;99.90
21592;DHT22;10958;50.892;3.992;2023-03-01T05:31:56;0.20;99.90
21592;DHT22;10958;50.892;3.992;2023-03-01T05:34:32;0.20;99.90
21592;DHT22;10958;50.892;3.992;2023-03-01T05:36:59;0.20;99.90
21592;DHT22;10958;50.892;3.992;2023-03-01T05:39:26;0.20;99.90
21592;DHT22;10958;50.892;3.992;2023-03-01T05:41:59;0.20;99.90
21592;DHT22;10958;50.892;3.992;2023-03-01T05:44:26;0.30;99.90
21592;DHT22;10958;50.892;3.992;2023-03-01T05:46:52;0.40;99.90
21592;DHT22;10958;50.892;3.992;2023-03-01T05:49:18;0.20;99.90
21592;DHT22;10958;50.892;3.992;2023-03-01T05:51:51;0.30;99.90
21592;DHT22;10958;50.892;3.992;2023-03-01T05:54:21;0.20;99.90
21592;DHT22;10958;50.892;3.992;2023-03-01T05:56:47;0.10;99.90
21592;DHT22;10958;50.892;3.992;2023-03-01T05:59:15;0.10;99.90
21592;DHT22;10958;50.892;3.992;2023-03-01T06:01:42;0.10;99.90
21592;DHT22;10958;50.892;3.992;2023-03-01T06:04:08;0.20;99.90
21592;DHT22;10958;50.892;3.992;2023-03-01T06:06:35;0.10;99.90
21592;DHT22;10958;50.892;3.992;2023-03-01T06:09:04;0.10;99.90
21592;DHT22;10958;50.892;3.992;2023-03-01T06:11:30;-0.10;99.90
21592;DHT22;10958;50.892;3.992;2023-03-01T06:13:56;-0.10;99.90
21592;DHT22;10958;50.892;3.992;2023-03-01T06:16:22;-0.10;99.90
21592;DHT22;10958;50.892;3.992;2023-03-01T06:18:48;0.10;99.90
21592;DHT22;10958;50.892;3.992;2023-03-01T06:21:13;0.10;99.90
21592;DHT22;10958;50.892;3.992;2023-03-01T06:23:39;0.10;99.90
21592;DHT22;10958;50.892;3.992;2023-03-01T06:26:07;-0.10;99.90
21592;DHT22;10958;50.892;3.992;2023-03-01T06:28:33;-0.10;99.90
21592;DHT22;10958;50.892;3.992;2023-03-01T06:30:59;-0.30;99.90
21592;DHT22;10958;50.892;3.992;2023-03-01T06:33:30;-0.20;99.90
21592;DHT22;10958;50.892;3.992;2023-03-01T06:35:56;0.00;99.90
21592;DHT22;10958;50.892;3.992;2023-03-01T06:38:23;0.00;99.90
21592;DHT22;10958;50.892;3.992;2023-03-01T06:40:55;0.10;99.90
21592;DHT22;10958;50.892;3.992;2023-03-01T06:43:22;0.20;99.90
21592;DHT22;10958;50.892;3.992;2023-03-01T06:45:49;0.30;99.90
21592;DHT22;10958;50.892;3.992;2023-03-01T06:48:14;0.30;99.90
21592;DHT22;10958;50.892;3.992;2023-03-01T06:50:40;0.30;99.90
21592;DHT22;10958;50.892;3.992;2023-03-01T06:53:06;0.30;99.90
21592;DHT22;10958;50.892;3.992;2023-03-01T06:55:34;0.40;99.90
21592;DHT22;10958;50.892;3.992;2023-03-01T06:58:01;0.50;99.90
21592;DHT22;10958;50.892;3.992;2023-03-01T07:00:27;0.70;99.90
21592;DHT22;10958;50.892;3.992;2023-03-01T07:02:53;0.80;99.90
21592;DHT22;10958;50.892;3.992;2023-03-01T07:05:19;0.80;99.90
21592;DHT22;10958;50.892;3.992;2023-03-01T07:07:45;0.80;99.90
21592;DHT22;10958;50.892;3.992;2023-03-01T07:10:11;0.90;99.90
21592;DHT22;10958;50.892;3.992;2023-03-01T07:12:40;1.30;99.90
21592;DHT22;10958;50.892;3.992;2023-03-01T07:15:08;1.80;99.90
21592;DHT22;10958;50.892;3.992;2023-03-01T07:17:35;2.30;99.90
21592;DHT22;10958;50.892;3.992;2023-03-01T07:20:01;2.90;99.90
21592;DHT22;10958;50.892;3.992;2023-03-01T07:22:30;3.40;99.90
21592;DHT22;10958;50.892;3.992;2023-03-01T07:24:55;4.10;99.90
21592;DHT22;10958;50.892;3.992;2023-03-01T07:27:21;4.50;99.90
21592;DHT22;10958;50.892;3.992;2023-03-01T07:29:47;4.80;99.90
21592;DHT22;10958;50.892;3.992;2023-03-01T07:32:15;5.00;99.90
21592;DHT22;10958;50.892;3.992;2023-03-01T07:34:40;5.30;99.90
21592;DHT22;10958;50.892;3.992;2023-03-01T07:37:08;5.20;99.90
21592;DHT22;10958;50.892;3.992;2023-03-01T07:39:37;5.30;99.90
21592;DHT22;10958;50.892;3.992;2023-03-01T07:42:03;5.30;99.90
21592;DHT22;10958;50.892;3.992;2023-03-01T07:44:30;5.60;99.90
21592;DHT22;10958;50.892;3.992;2023-03-01T07:46:56;5.80;99.90
21592;DHT22;10958;50.892;3.992;2023-03-01T07:49:23;6.20;99.90
21592;DHT22;10958;50.892;3.992;2023-03-01T07:51:49;6.30;99.90
21592;DHT22;10958;50.892;3.992;2023-03-01T07:54:14;6.60;99.90
21592;DHT22;10958;50.892;3.992;2023-03-01T07:56:40;6.80;99.90
21592;DHT22;10958;50.892;3.992;2023-03-01T07:59:06;6.80;99.90
21592;DHT22;10958;50.892;3.992;2023-03-01T08:01:31;7.00;99.90
21592;DHT22;10958;50.892;3.992;2023-03-01T08:03:57;7.00;99.90
21592;DHT22;10958;50.892;3.992;2023-03-01T08:06:26;7.00;99.90
21592;DHT22;10958;50.892;3.992;2023-03-01T08:08:51;7.00;99.90
21592;DHT22;10958;50.892;3.992;2023-03-01T08:11:19;6.90;99.90
21592;DHT22;10958;50.892;3.992;2023-03-01T08:13:48;6.00;99.90
21592;DHT22;10958;50.892;3.992;2023-03-01T08:16:15;6.30;99.90
21592;DHT22;10958;50.892;3.992;2023-03-01T08:18:43;5.90;99.90
21592;DHT22;10958;50.892;3.992;2023-03-01T08:21:15;5.90;99.90
21592;DHT22;10958;50.892;3.992;2023-03-01T08:23:43;5.40;99.90
21592;DHT22;10958;50.892;3.992;2023-03-01T08:26:16;5.50;99.90
21592;DHT22;10958;50.892;3.992;2023-03-01T08:28:44;4.50;99.90
21592;DHT22;10958;50.892;3.992;2023-03-01T08:33:46;4.00;99.90
21592;DHT22;10958;50.892;3.992;2023-03-01T08:36:41;4.00;99.90
21592;DHT22;10958;50.892;3.992;2023-03-01T08:39:07;4.20;99.90
21592;DHT22;10958;50.892;3.992;2023-03-01T08:41:37;4.90;99.90
21592;DHT22;10958;50.892;3.992;2023-03-01T08:44:05;5.00;99.90
21592;DHT22;10958;50.892;3.992;2023-03-01T08:46:33;5.30;99.90
21592;DHT22;10958;50.892;3.992;2023-03-01T08:48:59;5.40;99.90
21592;DHT22;10958;50.892;3.992;2023-03-01T08:51:26;5.70;99.90
21592;DHT22;10958;50.892;3.992;2023-03-01T08:53:52;6.30;99.90
21592;DHT22;10958;50.892;3.992;2023-03-01T08:56:18;6.40;99.90
21592;DHT22;10958;50.892;3.992;2023-03-01T08:58:48;6.70;99.90
21592;DHT22;10958;50.892;3.992;2023-03-01T09:01:18;6.40;99.90
21592;DHT22;10958;50.892;3.992;2023-03-01T09:03:45;5.80;99.90
21592;DHT22;10958;50.892;3.992;2023-03-01T09:06:11;5.90;99.90
21592;DHT22;10958;50.892;3.992;2023-03-01T09:08:39;6.00;99.90
21592;DHT22;10958;50.892;3.992;2023-03-01T09:11:08;5.70;99.90
21592;DHT22;10958;50.892;3.992;2023-03-01T09:13:34;5.90;99.90
21592;DHT22;10958;50.892;3.992;2023-03-01T09:16:01;5.50;99.90
21592;DHT22;10958;50.892;3.992;2023-03-01T09:18:28;5.60;99.90
21592;DHT22;10958;50.892;3.992;2023-03-01T09:21:00;6.00;99.90
21592;DHT22;10958;50.892;3.992;2023-03-01T09:23:25;6.30;99.90
21592;DHT22;10958;50.892;3.992;2023-03-01T09:25:52;6.30;99.90
21592;DHT22;10958;50.892;3.992;2023-03-01T09:28:18;6.50;99.90
21592;DHT22;10958;50.892;3.992;2023-03-01T09:30:43;7.00;99.90
21592;DHT22;10958;50.892;3.992;2023-03-01T09:33:10;7.50;99.90
21592;DHT22;10958;50.892;3.992;2023-03-01T09:35:40;7.30;99.90
21592;DHT22;10958;50.892;3.992;2023-03-01T09:38:13;7.00;99.90
21592;DHT22;10958;50.892;3.992;2023-03-01T09:40:43;7.00;99.90
21592;DHT22;10958;50.892;3.992;2023-03-01T09:43:47;7.20;99.90
21592;DHT22;10958;50.892;3.992;2023-03-01T09:46:20;7.60;99.90
21592;DHT22;10958;50.892;3.992;2023-03-01T09:49:05;7.60;99.90
21592;DHT22;10958;50.892;3.992;2023-03-01T09:51:35;7.20;99.90
21592;DHT22;10958;50.892;3.992;2023-03-01T09:54:05;7.20;99.90
21592;DHT22;10958;50.892;3.992;2023-03-01T10:01:49;6.60;99.90
21592;DHT22;10958;50.892;3.992;2023-03-01T10:07:22;6.60;99.90
21592;DHT22;10958;50.892;3.992;2023-03-01T10:09:54;6.40;99.90
21592;DHT22;10958;50.892;3.992;2023-03-01T10:12:27;6.10;99.90
21592;DHT22;10958;50.892;3.992;2023-03-01T10:15:05;6.30;99.90
21592;DHT22;10958;50.892;3.992;2023-03-01T10:17:46;6.10;99.90
21592;DHT22;10958;50.892;3.992;2023-03-01T10:22:46;6.20;99.90
21592;DHT22;10958;50.892;3.992;2023-03-01T10:28:17;6.00;99.90
21592;DHT22;10958;50.892;3.992;2023-03-01T10:30:46;6.30;99.90
21592;DHT22;10958;50.892;3.992;2023-03-01T10:33:29;6.50;99.90
21592;DHT22;10958;50.892;3.992;2023-03-01T10:35:56;6.70;99.90
21592;DHT22;10958;50.892;3.992;2023-03-01T10:38:22;6.80;99.90
21592;DHT22;10958;50.892;3.992;2023-03-01T10:41:05;6.20;99.90
21592;DHT22;10958;50.892;3.992;2023-03-01T10:43:57;6.10;99.90
21592;DHT22;10958;50.892;3.992;2023-03-01T10:46:31;6.00;99.90
21592;DHT22;10958;50.892;3.992;2023-03-01T10:49:16;5.80;99.90
21592;DHT22;10958;50.892;3.992;2023-03-01T10:51:47;5.80;99.90
21592;DHT22;10958;50.892;3.992;2023-03-01T10:54:18;5.50;99.90
21592;DHT22;10958;50.892;3.992;2023-03-01T10:56:55;5.50;99.90
21592;DHT22;10958;50.892;3.992;2023-03-01T10:59:36;5.40;99.90
21592;DHT22;10958;50.892;3.992;2023-03-01T11:03:37;5.50;99.90
21592;DHT22;10958;50.892;3.992;2023-03-01T11:08:44;5.60;99.90
21592;DHT22;10958;50.892;3.992;2023-03-01T11:16:35;5.60;99.90
21592;DHT22;10958;50.892;3.992;2023-03-01T11:22:13;6.00;99.90
21592;DHT22;10958;50.892;3.992;2023-03-01T11:24:43;6.10;99.90
21592;DHT22;10958;50.892;3.992;2023-03-01T11:27:25;6.00;99.90
21592;DHT22;10958;50.892;3.992;2023-03-01T11:30:15;6.10;99.90
21592;DHT22;10958;50.892;3.992;2023-03-01T11:32:56;6.20;99.90
21592;DHT22;10958;50.892;3.992;2023-03-01T11:35:28;6.10;99.90
21592;DHT22;10958;50.892;3.992;2023-03-01T11:46:27;6.10;99.90
21592;DHT22;10958;50.892;3.992;2023-03-01T11:54:37;6.30;99.90
21592;DHT22;10958;50.892;3.992;2023-03-01T12:03:22;6.40;99.90
21592;DHT22;10958;50.892;3.992;2023-03-01T12:19:21;6.50;99.90
21592;DHT22;10958;50.892;3.992;2023-03-01T12:28:09;6.30;99.90
21592;DHT22;10958;50.892;3.992;2023-03-01T12:38:46;6.70;99.90
21592;DHT22;10958;50.892;3.992;2023-03-01T12:46:52;6.60;99.90
21592;DHT22;10958;50.892;3.992;2023-03-01T12:49:28;6.50;99.90
21592;DHT22;10958;50.892;3.992;2023-03-01T12:52:02;6.50;99.90
21592;DHT22;10958;50.892;3.992;2023-03-01T12:54:36;6.60;99.90
21592;DHT22;10958;50.892;3.992;2023-03-01T12:57:59;6.70;99.90
21592;DHT22;10958;50.892;3.992;2023-03-01T13:03:00;6.80;99.90
21592;DHT22;10958;50.892;3.992;2023-03-01T13:11:05;7.00;99.90
21592;DHT22;10958;50.892;3.992;2023-03-01T13:13:31;7.10;99.90
21592;DHT22;10958;50.892;3.992;2023-03-01T13:16:21;7.20;99.90
21592;DHT22;10958;50.892;3.992;2023-03-01T13:18:48;7.30;99.90
21592;DHT22;10958;50.892;3.992;2023-03-01T13:21:30;7.20;99.90
21592;DHT22;10958;50.892;3.992;2023-03-01T13:23:56;7.20;99.90
21592;DHT22;10958;50.892;3.992;2023-03-01T13:26:22;7.30;99.90
21592;DHT22;10958;50.892;3.992;2023-03-01T13:28:54;7.20;99.90
21592;DHT22;10958;50.892;3.992;2023-03-01T13:33:57;7.20;99.90
21592;DHT22;10958;50.892;3.992;2023-03-01T13:39:03;7.10;99.90
21592;DHT22;10958;50.892;3.992;2023-03-01T13:47:15;7.10;99.90
21592;DHT22;10958;50.892;3.992;2023-03-01T13:55:22;7.40;99.90
21592;DHT22;10958;50.892;3.992;2023-03-01T13:58:01;7.40;99.90
21592;DHT22;10958;50.892;3.992;2023-03-01T14:00:36;7.50;99.90
21592;DHT22;10958;50.892;3.992;2023-03-01T14:03:18;7.30;99.90
21592;DHT22;10958;50.892;3.992;2023-03-01T14:08:36;7.10;99.90
21592;DHT22;10958;50.892;3.992;2023-03-01T14:19:47;7.40;99.90
21592;DHT22;10958;50.892;3.992;2023-03-01T14:22:33;7.50;99.90
21592;DHT22;10958;50.892;3.992;2023-03-01T14:25:01;7.50;99.90
21592;DHT22;10958;50.892;3.992;2023-03-01T14:27:37;7.50;99.90
21592;DHT22;10958;50.892;3.992;2023-03-01T14:30:15;7.40;99.90
21592;DHT22;10958;50.892;3.992;2023-03-01T14:32:57;7.40;99.90
21592;DHT22;10958;50.892;3.992;2023-03-01T14:35:26;7.30;99.90
21592;DHT22;10958;50.892;3.992;2023-03-01T14:37:53;7.40;99.90
21592;DHT22;10958;50.892;3.992;2023-03-01T14:40:28;7.40;99.90
21592;DHT22;10958;50.892;3.992;2023-03-01T14:42:58;7.40;99.90
21592;DHT22;10958;50.892;3.992;2023-03-01T14:45:26;7.40;99.90
21592;DHT22;10958;50.892;3.992;2023-03-01T14:47:53;7.40;99.90
21592;DHT22;10958;50.892;3.992;2023-03-01T14:50:32;7.40;99.90
21592;DHT22;10958;50.892;3.992;2023-03-01T14:53:01;7.40;99.90
21592;DHT22;10958;50.892;3.992;2023-03-01T14:55:38;7.50;99.90
21592;DHT22;10958;50.892;3.992;2023-03-01T14:58:12;7.50;99.90
21592;DHT22;10958;50.892;3.992;2023-03-01T15:00:49;7.50;99.90
21592;DHT22;10958;50.892;3.992;2023-03-01T15:03:31;7.60;99.90
21592;DHT22;10958;50.892;3.992;2023-03-01T15:06:01;7.50;99.90
21592;DHT22;10958;50.892;3.992;2023-03-01T15:08:28;7.40;99.90
21592;DHT22;10958;50.892;3.992;2023-03-01T15:13:48;7.30;99.90
21592;DHT22;10958;50.892;3.992;2023-03-01T15:16:19;7.40;99.90
21592;DHT22;10958;50.892;3.992;2023-03-01T15:18:49;7.40;99.90
21592;DHT22;10958;50.892;3.992;2023-03-01T15:23:41;7.20;99.90
21592;DHT22;10958;50.892;3.992;2023-03-01T15:26:42;7.10;99.90
21592;DHT22;10958;50.892;3.992;2023-03-01T15:29:18;6.90;99.90
21592;DHT22;10958;50.892;3.992;2023-03-01T15:32:36;7.00;99.90
21592;DHT22;10958;50.892;3.992;2023-03-01T15:34:46;7.10;99.90
21592;DHT22;10958;50.892;3.992;2023-03-01T15:37:40;7.20;99.90
21592;DHT22;10958;50.892;3.992;2023-03-01T15:40:29;7.10;99.90
21592;DHT22;10958;50.892;3.992;2023-03-01T15:43:05;7.10;99.90
21592;DHT22;10958;50.892;3.992;2023-03-01T15:45:37;7.10;99.90
21592;DHT22;10958;50.892;3.992;2023-03-01T15:48:15;7.20;99.90
21592;DHT22;10958;50.892;3.992;2023-03-01T15:50:43;7.10;99.90
21592;DHT22;10958;50.892;3.992;2023-03-01T15:53:13;7.00;99.90
21592;DHT22;10958;50.892;3.992;2023-03-01T15:55:42;7.20;99.90
21592;DHT22;10958;50.892;3.992;2023-03-01T15:58:18;7.20;99.90
21592;DHT22;10958;50.892;3.992;2023-03-01T16:00:46;7.20;99.90
21592;DHT22;10958;50.892;3.992;2023-03-01T16:03:14;7.30;99.90
21592;DHT22;10958;50.892;3.992;2023-03-01T16:05:40;7.30;99.90
21592;DHT22;10958;50.892;3.992;2023-03-01T16:08:06;7.10;99.90
21592;DHT22;10958;50.892;3.992;2023-03-01T16:10:33;7.20;99.90
21592;DHT22;10958;50.892;3.992;2023-03-01T16:12:59;7.20;99.90
21592;DHT22;10958;50.892;3.992;2023-03-01T16:15:34;7.00;99.90
21592;DHT22;10958;50.892;3.992;2023-03-01T16:18:03;6.80;99.90
21592;DHT22;10958;50.892;3.992;2023-03-01T16:20:31;7.00;99.90
21592;DHT22;10958;50.892;3.992;2023-03-01T16:23:00;7.00;99.90
21592;DHT22;10958;50.892;3.992;2023-03-01T16:25:26;7.00;99.90
21592;DHT22;10958;50.892;3.992;2023-03-01T16:27:52;7.10;99.90
21592;DHT22;10958;50.892;3.992;2023-03-01T16:30:21;7.10;99.90
21592;DHT22;10958;50.892;3.992;2023-03-01T16:32:50;7.00;99.90
21592;DHT22;10958;50.892;3.992;2023-03-01T16:35:20;6.80;99.90
21592;DHT22;10958;50.892;3.992;2023-03-01T16:37:46;6.80;99.90
21592;DHT22;10958;50.892;3.992;2023-03-01T16:40:25;6.80;99.90
21592;DHT22;10958;50.892;3.992;2023-03-01T16:42:55;6.80;99.90
21592;DHT22;10958;50.892;3.992;2023-03-01T16:45:24;6.50;99.90
21592;DHT22;10958;50.892;3.992;2023-03-01T16:47:53;6.40;99.90
21592;DHT22;10958;50.892;3.992;2023-03-01T16:50:19;6.40;99.90
21592;DHT22;10958;50.892;3.992;2023-03-01T16:52:45;6.40;99.90
21592;DHT22;10958;50.892;3.992;2023-03-01T16:55:11;6.50;99.90
21592;DHT22;10958;50.892;3.992;2023-03-01T16:57:37;6.40;99.90
21592;DHT22;10958;50.892;3.992;2023-03-01T17:00:05;6.30;99.90
21592;DHT22;10958;50.892;3.992;2023-03-01T17:02:35;6.30;99.90
21592;DHT22;10958;50.892;3.992;2023-03-01T17:05:02;6.20;99.90
21592;DHT22;10958;50.892;3.992;2023-03-01T17:07:32;6.30;99.90
21592;DHT22;10958;50.892;3.992;2023-03-01T17:10:04;6.40;99.90
21592;DHT22;10958;50.892;3.992;2023-03-01T17:12:31;6.30;99.90
21592;DHT22;10958;50.892;3.992;2023-03-01T17:14:59;6.20;99.90
21592;DHT22;10958;50.892;3.992;2023-03-01T17:17:26;6.10;99.90
21592;DHT22;10958;50.892;3.992;2023-03-01T17:19:55;6.00;99.90
21592;DHT22;10958;50.892;3.992;2023-03-01T17:22:21;5.90;99.90
21592;DHT22;10958;50.892;3.992;2023-03-01T17:24:47;5.90;99.90
21592;DHT22;10958;50.892;3.992;2023-03-01T17:27:13;5.90;99.90
21592;DHT22;10958;50.892;3.992;2023-03-01T17:29:41;6.00;99.90
21592;DHT22;10958;50.892;3.992;2023-03-01T17:32:07;6.10;99.90
21592;DHT22;10958;50.892;3.992;2023-03-01T17:34:33;6.10;99.90
21592;DHT22;10958;50.892;3.992;2023-03-01T17:36:59;5.80;99.90
21592;DHT22;10958;50.892;3.992;2023-03-01T17:39:25;5.70;99.90
21592;DHT22;10958;50.892;3.992;2023-03-01T17:41:56;5.60;99.90
21592;DHT22;10958;50.892;3.992;2023-03-01T17:44:24;5.50;99.90
21592;DHT22;10958;50.892;3.992;2023-03-01T17:46:53;5.50;99.90
21592;DHT22;10958;50.892;3.992;2023-03-01T17:49:18;5.70;99.90
21592;DHT22;10958;50.892;3.992;2023-03-01T17:51:44;5.60;99.90
21592;DHT22;10958;50.892;3.992;2023-03-01T17:54:14;5.60;99.90
21592;DHT22;10958;50.892;3.992;2023-03-01T17:56:39;5.80;99.90
21592;DHT22;10958;50.892;3.992;2023-03-01T17:59:07;5.70;99.90
21592;DHT22;10958;50.892;3.992;2023-03-01T18:01:32;5.80;99.90
21592;DHT22;10958;50.892;3.992;2023-03-01T18:04:05;5.80;99.90
21592;DHT22;10958;50.892;3.992;2023-03-01T18:06:31;5.80;99.90
21592;DHT22;10958;50.892;3.992;2023-03-01T18:08:59;5.90;99.90
21592;DHT22;10958;50.892;3.992;2023-03-01T18:11:25;5.80;99.90
21592;DHT22;10958;50.892;3.992;2023-03-01T18:13:53;6.00;99.90
21592;DHT22;10958;50.892;3.992;2023-03-01T18:16:20;5.80;99.90
21592;DHT22;10958;50.892;3.992;2023-03-01T18:18:51;5.60;99.90